Time;durP1;ratioP1;P1;durP2;ratioP2;P2;SDS_P1;SDS_P2;PMS_P1;PMS_P2;Temp;Humidity;BMP_temperature;BMP_pressure;BME280_temperature;BME280_humidity;BME280_pressure;Samples;Min_cycle;Max_cycle;Signal;HPM_P1;HPM_P2
2021/06/11 00:02:23;;;;;;;14.88;11.32;;;18.80;89.50;;;;;;5052498;28;20032;-75
2021/06/11 00:04:49;;;;;;;13.80;11.57;;;18.70;89.50;;;;;;5052626;28;20415;-76
2021/06/11 00:07:14;;;;;;;14.68;12.20;;;18.80;89.40;;;;;;5052366;28;20071;-76
2021/06/11 00:09:40;;;;;;;15.15;12.68;;;18.70;89.30;;;;;;5051198;28;20387;-76
2021/06/11 00:12:07;;;;;;;14.18;11.95;;;18.80;89.40;;;;;;5052795;28;20025;-76
2021/06/11 00:14:32;;;;;;;12.90;11.32;;;18.70;89.40;;;;;;5051484;28;20021;-75
2021/06/11 00:16:58;;;;;;;14.02;11.38;;;18.70;89.60;;;;;;5052796;28;20132;-76
2021/06/11 00:19:24;;;;;;;12.95;11.40;;;18.70;89.50;;;;;;5050789;28;20025;-76
2021/06/11 00:21:49;;;;;;;15.38;12.23;;;18.80;89.60;;;;;;5052502;28;20100;-75
2021/06/11 00:24:15;;;;;;;13.85;11.25;;;18.70;89.50;;;;;;5052195;28;20021;-75
2021/06/11 00:26:41;;;;;;;13.57;11.88;;;18.70;89.50;;;;;;5052066;28;20025;-75
2021/06/11 00:29:07;;;;;;;12.70;10.98;;;18.70;89.60;;;;;;5052093;28;20025;-75
2021/06/11 00:31:32;;;;;;;12.75;10.75;;;18.80;89.60;;;;;;5052575;28;20482;-74
2021/06/11 00:33:58;;;;;;;14.40;11.20;;;18.70;89.50;;;;;;5052368;28;20032;-75
2021/06/11 00:36:24;;;;;;;12.38;11.10;;;18.70;89.60;;;;;;5052075;28;20032;-75
2021/06/11 00:38:49;;;;;;;16.10;11.68;;;18.70;89.60;;;;;;5052065;28;20025;-75
2021/06/11 00:41:15;;;;;;;13.23;11.63;;;18.80;89.70;;;;;;5052079;28;20049;-76
2021/06/11 00:43:41;;;;;;;14.82;11.52;;;18.80;89.70;;;;;;5052135;28;20032;-75
2021/06/11 00:46:07;;;;;;;15.77;10.98;;;18.80;89.70;;;;;;5052519;28;20059;-75
2021/06/11 00:48:32;;;;;;;11.85;10.63;;;18.80;89.70;;;;;;5052296;28;20394;-75
2021/06/11 00:50:58;;;;;;;13.07;11.02;;;18.90;89.70;;;;;;5052187;28;20049;-76
2021/06/11 00:53:24;;;;;;;11.93;10.68;;;18.90;89.60;;;;;;5052295;28;20463;-74
2021/06/11 00:55:49;;;;;;;12.45;10.93;;;18.90;89.50;;;;;;5051932;28;20036;-74
2021/06/11 00:58:16;;;;;;;13.32;11.70;;;18.90;89.40;;;;;;5051685;28;20464;-75
2021/06/11 01:00:43;;;;;;;12.90;11.05;;;18.90;89.30;;;;;;5051764;28;20055;-76
2021/06/11 01:03:11;;;;;;;13.73;11.15;;;18.90;89.30;;;;;;5051550;28;20450;-76
2021/06/11 01:05:37;;;;;;;13.05;11.18;;;18.90;89.30;;;;;;5051922;28;20048;-76
2021/06/11 01:08:06;;;;;;;12.98;10.48;;;18.90;89.30;;;;;;5051919;28;20055;-76
2021/06/11 01:10:32;;;;;;;13.40;11.02;;;18.90;89.30;;;;;;5051996;28;20032;-76
2021/06/11 01:12:58;;;;;;;13.07;10.55;;;18.90;89.30;;;;;;5050683;28;20432;-76
2021/06/11 01:15:24;;;;;;;12.85;10.85;;;18.90;89.30;;;;;;5051500;28;20025;-76
2021/06/11 01:17:53;;;;;;;12.65;10.93;;;18.90;89.20;;;;;;5050249;28;20360;-76
2021/06/11 01:20:19;;;;;;;14.77;11.27;;;18.90;89.20;;;;;;5051595;28;20013;-76
2021/06/11 01:23:11;;;;;;;13.75;10.80;;;19.00;89.30;;;;;;5051579;28;20033;-76
2021/06/11 01:25:59;;;;;;;14.95;11.93;;;18.90;89.30;;;;;;5040727;28;20037;-76
2021/06/11 01:28:27;;;;;;;14.55;11.77;;;18.90;89.30;;;;;;5050794;28;20562;-76
2021/06/11 01:30:55;;;;;;;12.60;11.30;;;19.00;89.40;;;;;;5050352;28;20029;-75
2021/06/11 01:33:23;;;;;;;13.02;11.63;;;18.90;89.40;;;;;;5050231;28;20119;-75
2021/06/11 01:35:56;;;;;;;12.15;10.95;;;19.00;89.60;;;;;;5051447;28;20036;-75
2021/06/11 01:38:24;;;;;;;17.40;11.90;;;18.90;89.70;;;;;;5051304;28;20025;-75
2021/06/11 01:40:52;;;;;;;13.05;11.70;;;19.00;89.80;;;;;;5055243;28;20017;-75
2021/06/11 01:43:20;;;;;;;18.90;12.18;;;19.00;89.90;;;;;;5055235;28;20031;-75
2021/06/11 01:45:46;;;;;;;13.38;11.93;;;19.00;90.00;;;;;;5054888;28;20025;-75
2021/06/11 01:48:15;;;;;;;17.85;11.55;;;19.00;90.00;;;;;;5055069;28;20025;-75
2021/06/11 01:50:42;;;;;;;13.45;11.45;;;19.00;90.00;;;;;;5055038;28;20049;-75
2021/06/11 01:53:11;;;;;;;14.38;10.48;;;19.00;90.10;;;;;;5055128;28;20083;-75
2021/06/11 01:55:39;;;;;;;16.55;12.45;;;19.00;90.10;;;;;;5054843;28;20053;-75
2021/06/11 01:58:07;;;;;;;16.13;11.68;;;19.00;90.10;;;;;;5054918;28;20017;-76
2021/06/11 02:00:33;;;;;;;15.05;11.48;;;19.00;90.00;;;;;;5053785;28;20021;-76
2021/06/11 02:03:00;;;;;;;15.13;10.85;;;19.00;90.00;;;;;;5053673;28;20028;-76
2021/06/11 02:05:26;;;;;;;17.50;13.05;;;19.00;90.00;;;;;;5053818;28;20076;-76
2021/06/11 02:07:52;;;;;;;13.48;11.50;;;19.00;89.90;;;;;;5055073;28;20098;-76
2021/06/11 02:10:21;;;;;;;15.40;11.05;;;19.00;89.90;;;;;;5054889;28;20100;-76
2021/06/11 02:12:48;;;;;;;13.82;11.35;;;18.90;89.80;;;;;;5054863;28;20036;-76
2021/06/11 02:15:15;;;;;;;18.10;11.63;;;19.00;89.90;;;;;;5054673;28;20025;-76
2021/06/11 02:17:44;;;;;;;13.00;11.18;;;19.00;89.80;;;;;;5054050;28;20017;-76
2021/06/11 02:20:13;;;;;;;12.93;11.32;;;19.00;89.80;;;;;;5054819;28;20048;-76
2021/06/11 02:22:41;;;;;;;12.95;10.65;;;19.00;89.70;;;;;;5054757;28;20050;-76
2021/06/11 02:25:08;;;;;;;14.98;11.40;;;19.10;89.60;;;;;;5053404;28;20025;-76
2021/06/11 02:27:37;;;;;;;12.68;11.23;;;19.10;89.50;;;;;;5054930;28;20125;-77
2021/06/11 02:30:08;;;;;;;14.65;11.65;;;19.10;89.50;;;;;;5054732;28;20028;-76
2021/06/11 02:32:38;;;;;;;13.80;11.60;;;19.10;89.30;;;;;;5054812;28;20025;-76
2021/06/11 02:35:06;;;;;;;18.65;11.93;;;19.20;89.30;;;;;;5054926;28;20078;-76
2021/06/11 02:37:32;;;;;;;16.52;11.50;;;19.20;89.10;;;;;;5054730;28;20025;-76
2021/06/11 02:39:58;;;;;;;18.13;12.63;;;19.20;89.00;;;;;;5054405;28;20482;-77
2021/06/11 02:42:27;;;;;;;17.00;12.00;;;19.30;89.00;;;;;;5054880;28;20363;-76
2021/06/11 02:44:55;;;;;;;16.65;11.90;;;19.30;88.90;;;;;;5054891;28;20029;-76
2021/06/11 02:47:54;;;;;;;13.90;11.93;;;19.40;89.00;;;;;;5054668;28;20023;-76
2021/06/11 02:50:23;;;;;;;17.38;12.70;;;19.40;88.90;;;;;;5053704;28;20056;-76
2021/06/11 02:52:57;;;;;;;18.88;11.98;;;19.40;88.80;;;;;;5054157;28;20021;-76
2021/06/11 02:55:23;;;;;;;16.17;12.05;;;19.50;88.80;;;;;;5053666;28;20045;-76
2021/06/11 02:57:52;;;;;;;17.67;12.38;;;19.50;88.70;;;;;;5052564;28;20367;-76
2021/06/11 03:00:19;;;;;;;13.85;11.73;;;19.50;88.60;;;;;;5053778;28;20032;-76
2021/06/11 03:02:55;;;;;;;15.73;12.75;;;19.50;88.50;;;;;;5054003;28;20021;-78
2021/06/11 03:05:23;;;;;;;15.55;12.90;;;19.60;88.40;;;;;;5054146;28;20025;-77
2021/06/11 03:07:53;;;;;;;14.52;11.50;;;19.60;88.40;;;;;;5053593;28;20032;-77
2021/06/11 03:10:30;;;;;;;15.45;11.77;;;19.60;88.30;;;;;;5053466;28;20024;-77
2021/06/11 03:12:59;;;;;;;16.88;11.98;;;19.70;88.30;;;;;;5052110;28;20473;-77
2021/06/11 03:15:27;;;;;;;14.50;12.25;;;19.70;88.20;;;;;;5053295;28;20032;-77
2021/06/11 03:17:56;;;;;;;16.50;13.30;;;19.70;88.10;;;;;;5053491;28;20017;-77
2021/06/11 03:20:27;;;;;;;17.70;12.32;;;19.70;88.00;;;;;;5053576;28;20799;-76
2021/06/11 03:22:57;;;;;;;18.05;12.32;;;19.70;87.90;;;;;;5053446;28;20036;-76
2021/06/11 03:25:31;;;;;;;13.82;12.43;;;19.70;87.70;;;;;;5053403;28;20082;-76
2021/06/11 03:28:12;;;;;;;14.85;12.43;;;19.80;87.70;;;;;;5053642;28;20380;-76
2021/06/11 03:30:43;;;;;;;17.33;12.82;;;19.80;87.60;;;;;;5053608;28;20025;-78
2021/06/11 03:33:13;;;;;;;15.82;12.07;;;19.80;87.60;;;;;;5053694;28;20028;-76
2021/06/11 03:35:48;;;;;;;15.50;12.93;;;19.80;87.50;;;;;;5052808;28;20112;-77
2021/06/11 03:38:19;;;;;;;16.15;14.32;;;19.90;87.60;;;;;;5051923;28;20091;-78
2021/06/11 03:40:47;;;;;;;15.25;12.55;;;19.90;87.60;;;;;;5053161;28;20018;-78
2021/06/11 03:43:15;;;;;;;16.92;13.60;;;19.90;87.70;;;;;;5053021;28;20032;-78
2021/06/11 03:45:42;;;;;;;16.58;13.93;;;19.90;87.60;;;;;;5053028;28;20040;-78
2021/06/11 03:48:10;;;;;;;21.90;14.80;;;19.90;87.60;;;;;;5053091;28;20091;-76
2021/06/11 03:50:36;;;;;;;16.90;12.73;;;19.90;87.70;;;;;;5053173;28;20080;-78
2021/06/11 03:53:05;;;;;;;17.90;13.07;;;19.90;87.70;;;;;;5051473;28;20025;-77
2021/06/11 03:55:40;;;;;;;17.63;13.63;;;19.90;87.70;;;;;;5052641;28;20032;-76
2021/06/11 03:58:46;;;;;;;21.77;14.40;;;19.90;87.80;;;;;;5052443;28;20017;-76
2021/06/11 04:01:24;;;;;;;21.98;14.07;;;19.90;87.80;;;;;;5030289;28;20104;-76
2021/06/11 04:03:51;;;;;;;16.02;13.85;;;19.80;88.00;;;;;;5012663;28;20566;-76
2021/06/11 04:06:22;;;;;;;17.05;13.35;;;19.90;88.00;;;;;;5013831;28;20041;-76
2021/06/11 04:08:51;;;;;;;17.60;12.70;;;19.80;88.10;;;;;;5029963;28;20108;-76
2021/06/11 04:11:24;;;;;;;15.45;13.25;;;19.80;88.20;;;;;;5031032;28;20025;-77
2021/06/11 04:13:54;;;;;;;19.35;13.93;;;19.80;88.20;;;;;;5030604;28;20033;-77
2021/06/11 04:16:43;;;;;;;14.20;12.65;;;19.80;88.40;;;;;;5033759;28;20026;-78
2021/06/11 04:19:19;;;;;;;19.58;13.85;;;19.80;88.50;;;;;;5019204;28;20034;-78
2021/06/11 04:21:47;;;;;;;21.73;13.48;;;19.80;88.50;;;;;;5019343;28;20047;-78
2021/06/11 04:24:15;;;;;;;16.77;13.90;;;19.70;89.30;;;;;;5035632;28;20041;-77
2021/06/11 04:26:43;;;;;;;18.67;15.07;;;19.70;89.10;;;;;;5030834;28;20044;-78
2021/06/11 04:29:15;;;;;;;16.80;13.65;;;19.70;89.40;;;;;;5030998;28;20480;-77
2021/06/11 04:31:42;;;;;;;18.52;13.95;;;19.80;89.80;;;;;;5039806;28;20033;-78
2021/06/11 04:34:13;;;;;;;16.80;13.85;;;19.70;89.70;;;;;;5052774;28;20028;-78
2021/06/11 04:36:40;;;;;;;15.07;13.48;;;19.70;90.00;;;;;;5050887;28;20501;-76
2021/06/11 04:39:07;;;;;;;17.23;13.30;;;19.70;90.00;;;;;;5051473;28;20027;-77
2021/06/11 04:41:33;;;;;;;18.88;14.73;;;19.70;90.10;;;;;;5052197;28;20082;-83
2021/06/11 04:44:01;;;;;;;18.98;15.05;;;19.70;90.20;;;;;;5051434;28;20024;-82
2021/06/11 04:46:27;;;;;;;19.50;14.40;;;19.70;90.40;;;;;;5053128;28;20032;-77
2021/06/11 04:48:53;;;;;;;18.83;15.43;;;19.70;90.50;;;;;;5052061;28;20107;-83
2021/06/11 04:51:19;;;;;;;19.27;14.70;;;19.80;90.60;;;;;;5053652;28;20033;-83
2021/06/11 04:53:45;;;;;;;21.73;17.88;;;19.80;90.80;;;;;;5052964;28;20456;-83
2021/06/11 04:56:12;;;;;;;23.60;16.42;;;19.80;90.90;;;;;;5051853;28;20029;-83
2021/06/11 04:58:39;;;;;;;20.83;17.65;;;19.80;91.00;;;;;;5052362;28;20041;-83
2021/06/11 05:01:06;;;;;;;20.50;15.73;;;19.80;91.10;;;;;;5051410;28;20481;-82
2021/06/11 05:03:32;;;;;;;20.17;15.98;;;19.70;91.30;;;;;;5050961;28;20096;-86
2021/06/11 05:06:00;;;;;;;22.60;16.38;;;19.80;91.40;;;;;;5045373;28;20025;-83
2021/06/11 05:08:26;;;;;;;20.80;16.42;;;19.70;91.50;;;;;;5085219;28;20021;-86
2021/06/11 05:10:52;;;;;;;23.40;16.65;;;19.70;91.70;;;;;;5041095;28;20195;-86
2021/06/11 05:13:17;;;;;;;20.00;16.67;;;19.70;92.00;;;;;;5043636;28;20034;-85
2021/06/11 05:15:43;;;;;;;20.58;15.80;;;19.70;92.30;;;;;;5044672;28;20030;-85
2021/06/11 05:18:09;;;;;;;20.75;17.35;;;19.70;92.40;;;;;;5046296;28;20479;-87
2021/06/11 05:20:37;;;;;;;25.63;17.55;;;19.60;92.60;;;;;;5045953;28;20029;-86
2021/06/11 05:23:03;;;;;;;26.73;18.30;;;19.60;93.00;;;;;;5045765;28;20017;-87
2021/06/11 05:25:29;;;;;;;25.20;16.90;;;19.60;93.30;;;;;;5045674;28;20096;-86
2021/06/11 05:27:55;;;;;;;25.23;17.55;;;19.60;93.60;;;;;;5044645;28;20025;-84
2021/06/11 05:30:23;;;;;;;27.48;19.30;;;19.60;94.00;;;;;;5056496;28;20041;-87
2021/06/11 05:32:49;;;;;;;31.38;19.95;;;19.60;94.40;;;;;;5064323;28;20440;-86
2021/06/11 05:35:15;;;;;;;28.60;18.40;;;19.60;94.80;;;;;;5056787;28;20041;-85
2021/06/11 05:37:41;;;;;;;25.60;19.25;;;19.60;95.30;;;;;;5047144;28;20014;-86
2021/06/11 05:40:08;;;;;;;19.70;16.30;;;19.50;95.60;;;;;;5049295;28;20045;-87
2021/06/11 05:42:34;;;;;;;20.70;16.13;;;19.60;96.10;;;;;;5049477;28;20028;-83
2021/06/11 05:45:04;;;;;;;27.33;17.70;;;19.60;96.40;;;;;;5072245;28;20056;-86
2021/06/11 05:47:30;;;;;;;25.33;17.83;;;19.60;96.80;;;;;;5047880;28;20112;-86
2021/06/11 05:49:56;;;;;;;19.83;16.10;;;19.60;97.10;;;;;;5046217;28;20077;-86
2021/06/11 05:52:21;;;;;;;24.10;14.95;;;19.70;97.40;;;;;;5050790;28;20044;-87
2021/06/11 05:54:47;;;;;;;17.27;13.57;;;19.70;97.80;;;;;;5047496;28;20017;-87
2021/06/11 05:57:13;;;;;;;13.88;11.60;;;19.80;98.20;;;;;;5048239;28;20037;-86
2021/06/11 05:59:39;;;;;;;12.73;11.35;;;19.90;98.60;;;;;;5044038;28;20029;-86
2021/06/11 06:02:05;;;;;;;15.32;11.25;;;20.00;98.80;;;;;;5067122;28;20005;-85
2021/06/11 06:04:30;;;;;;;13.73;11.30;;;20.20;99.00;;;;;;5060449;28;20032;-85
2021/06/11 06:06:59;;;;;;;15.38;11.48;;;20.30;99.00;;;;;;5055069;28;20085;-85
2021/06/11 06:09:25;;;;;;;17.20;13.73;;;20.50;98.90;;;;;;5081092;28;20015;-85
2021/06/11 06:11:51;;;;;;;14.68;11.57;;;20.50;98.70;;;;;;5067064;28;20449;-83
2021/06/11 06:14:17;;;;;;;15.02;10.52;;;20.70;98.80;;;;;;5045862;28;20021;-80
2021/06/11 06:16:43;;;;;;;12.05;9.27;;;20.70;98.80;;;;;;5043524;28;20507;-80
2021/06/11 06:19:09;;;;;;;12.52;9.15;;;20.90;98.80;;;;;;5045139;28;20020;-82
2021/06/11 06:21:34;;;;;;;13.60;10.07;;;21.00;98.60;;;;;;5046263;28;20013;-80
2021/06/11 06:24:00;;;;;;;10.57;9.48;;;21.20;98.90;;;;;;5047180;28;20028;-80
2021/06/11 06:26:27;;;;;;;9.82;8.85;;;21.40;99.00;;;;;;5041833;28;20030;-79
2021/06/11 06:28:53;;;;;;;7.97;7.15;;;21.70;99.00;;;;;;5042998;28;20021;-79
2021/06/11 06:31:19;;;;;;;9.32;7.68;;;22.00;98.90;;;;;;5043096;28;20080;-79
2021/06/11 06:33:45;;;;;;;12.43;11.07;;;22.50;99.50;;;;;;5042560;28;20049;-79
2021/06/11 06:36:11;;;;;;;7.68;6.93;;;23.00;99.70;;;;;;5042461;28;20063;-80
2021/06/11 06:38:37;;;;;;;9.10;6.93;;;23.50;98.20;;;;;;5045382;28;20164;-82
2021/06/11 06:41:05;;;;;;;11.02;7.50;;;23.80;96.60;;;;;;5045879;28;20029;-82
2021/06/11 06:43:32;;;;;;;6.88;6.28;;;24.10;95.50;;;;;;5043118;28;20060;-82
2021/06/11 06:45:58;;;;;;;7.53;6.28;;;24.30;93.80;;;;;;5043192;28;20025;-82
2021/06/11 06:48:24;;;;;;;7.18;6.47;;;24.40;92.50;;;;;;5043041;28;20017;-86
2021/06/11 06:50:50;;;;;;;9.32;8.27;;;24.50;91.30;;;;;;5044731;28;20063;-84
2021/06/11 06:53:18;;;;;;;7.00;6.30;;;24.60;90.50;;;;;;5047946;28;20029;-84
2021/06/11 06:55:44;;;;;;;7.80;6.90;;;24.60;89.20;;;;;;5045342;28;20022;-85
2021/06/11 06:58:10;;;;;;;11.55;8.93;;;24.60;87.80;;;;;;5043918;28;20051;-85
2021/06/11 07:00:36;;;;;;;8.63;7.68;;;24.70;87.00;;;;;;5048050;28;20051;-86
2021/06/11 07:03:03;;;;;;;7.03;6.32;;;24.60;86.00;;;;;;5054013;28;20111;-87
2021/06/11 07:05:29;;;;;;;6.40;5.80;;;24.60;85.10;;;;;;5053884;28;20048;-83
2021/06/11 07:07:55;;;;;;;9.68;7.40;;;24.70;84.80;;;;;;5054426;28;20463;-80
2021/06/11 07:10:21;;;;;;;7.95;7.15;;;24.60;84.00;;;;;;5054783;28;20056;-80
2021/06/11 07:12:47;;;;;;;7.78;6.78;;;24.60;83.80;;;;;;5055056;28;20029;-81
2021/06/11 07:15:13;;;;;;;8.23;7.30;;;24.60;83.70;;;;;;5054128;28;20048;-81
2021/06/11 07:17:40;;;;;;;7.72;6.60;;;24.60;83.30;;;;;;5054289;28;20025;-82
2021/06/11 07:20:07;;;;;;;9.88;8.75;;;24.60;83.10;;;;;;5054315;28;20040;-81
2021/06/11 07:22:32;;;;;;;10.45;7.55;;;24.70;83.00;;;;;;5053815;28;20368;-81
2021/06/11 07:25:02;;;;;;;7.88;7.07;;;24.80;83.10;;;;;;5052324;28;20032;-81
2021/06/11 07:27:32;;;;;;;13.73;7.60;;;24.90;82.50;;;;;;5054046;28;20013;-81
2021/06/11 07:30:03;;;;;;;8.57;7.57;;;25.10;81.90;;;;;;5054130;28;20420;-81
2021/06/11 07:32:29;;;;;;;8.90;7.03;;;25.20;81.20;;;;;;5052734;28;20054;-81
2021/06/11 07:34:54;;;;;;;8.23;7.43;;;25.40;80.70;;;;;;5053649;28;20053;-81
2021/06/11 07:37:20;;;;;;;9.93;6.80;;;25.50;79.90;;;;;;5053630;28;20017;-81
2021/06/11 07:39:46;;;;;;;8.05;6.95;;;25.70;79.60;;;;;;5053512;28;20048;-81
2021/06/11 07:42:12;;;;;;;10.05;7.40;;;25.80;78.90;;;;;;5053636;28;20028;-81
2021/06/11 07:44:39;;;;;;;8.05;6.95;;;26.00;78.90;;;;;;5053570;28;20052;-81
2021/06/11 07:47:04;;;;;;;8.48;7.70;;;26.40;78.30;;;;;;5053351;28;20703;-80
2021/06/11 07:49:30;;;;;;;8.02;6.90;;;26.60;77.20;;;;;;5053572;28;20124;-80
2021/06/11 07:51:56;;;;;;;6.60;5.90;;;26.80;77.40;;;;;;5053285;28;20411;-80
2021/06/11 07:54:22;;;;;;;7.40;6.75;;;27.20;76.60;;;;;;5051227;28;20029;-80
2021/06/11 07:56:47;;;;;;;6.57;5.85;;;27.60;75.70;;;;;;5052132;28;20029;-79
2021/06/11 07:59:15;;;;;;;6.63;5.82;;;27.80;74.80;;;;;;5052323;28;20439;-81
2021/06/11 08:01:41;;;;;;;7.50;6.80;;;28.10;73.50;;;;;;5051990;28;20116;-79
2021/06/11 08:04:06;;;;;;;9.10;7.60;;;28.20;72.70;;;;;;5050649;28;20111;-79
2021/06/11 08:06:32;;;;;;;8.70;7.15;;;28.10;71.40;;;;;;5050925;28;20024;-78
2021/06/11 08:08:58;;;;;;;8.23;7.43;;;27.90;70.80;;;;;;5052601;28;20447;-81
2021/06/11 08:11:24;;;;;;;8.35;6.75;;;27.70;70.70;;;;;;5053413;28;20498;-82
2021/06/11 08:13:50;;;;;;;7.65;6.53;;;27.60;71.00;;;;;;5057016;28;20430;-80
2021/06/11 08:16:16;;;;;;;8.98;6.78;;;27.50;71.00;;;;;;5053622;28;20040;-81
2021/06/11 08:18:41;;;;;;;6.50;5.85;;;27.40;70.70;;;;;;5053470;28;20116;-81
2021/06/11 08:21:07;;;;;;;7.53;6.03;;;27.20;70.60;;;;;;5053144;28;20013;-81
2021/06/11 08:23:33;;;;;;;6.35;5.75;;;27.00;70.70;;;;;;5052764;28;20025;-81
2021/06/11 08:25:59;;;;;;;6.53;5.93;;;26.90;71.30;;;;;;5052873;28;20096;-80
2021/06/11 08:28:24;;;;;;;5.47;4.97;;;26.80;71.30;;;;;;5052685;28;20448;-83
2021/06/11 08:30:50;;;;;;;5.38;4.88;;;26.60;71.30;;;;;;5052693;28;20771;-83
2021/06/11 08:33:16;;;;;;;6.80;5.05;;;26.40;71.40;;;;;;5052173;28;20367;-83
2021/06/11 08:35:41;;;;;;;7.03;4.82;;;26.20;71.90;;;;;;5053488;28;20154;-83
2021/06/11 08:38:07;;;;;;;4.63;4.22;;;26.10;72.10;;;;;;5054449;28;20040;-83
2021/06/11 08:40:33;;;;;;;4.43;4.03;;;26.10;72.10;;;;;;5059015;28;20032;-84
2021/06/11 08:43:00;;;;;;;5.80;4.55;;;26.00;71.90;;;;;;5068071;28;20059;-82
2021/06/11 08:45:25;;;;;;;5.88;4.68;;;25.90;71.70;;;;;;5065155;28;20060;-83
2021/06/11 08:47:54;;;;;;;5.28;4.85;;;25.90;71.90;;;;;;5064355;28;20021;-83
2021/06/11 08:50:28;;;;;;;6.47;5.10;;;25.70;71.80;;;;;;5059423;28;20103;-83
2021/06/11 08:52:59;;;;;;;4.60;4.18;;;25.60;72.00;;;;;;5055415;28;20470;-82
2021/06/11 08:55:26;;;;;;;4.20;3.90;;;25.50;72.10;;;;;;5053674;28;20053;-83
2021/06/11 08:57:52;;;;;;;5.45;3.55;;;25.40;72.40;;;;;;5054386;28;20017;-83
2021/06/11 09:00:21;;;;;;;4.55;3.50;;;25.30;72.60;;;;;;5053965;28;20078;-83
2021/06/11 09:03:25;;;;;;;3.78;3.05;;;25.20;72.80;;;;;;5052059;28;20494;-83
2021/06/11 09:05:59;;;;;;;4.13;2.72;;;25.10;73.20;;;;;;5053206;28;20025;-83
2021/06/11 09:08:27;;;;;;;3.75;3.30;;;25.20;73.50;;;;;;5053364;28;20094;-82
2021/06/11 09:11:11;;;;;;;3.45;3.15;;;25.20;73.60;;;;;;5053207;28;20021;-82
2021/06/11 09:13:40;;;;;;;3.30;3.00;;;25.30;73.30;;;;;;5053036;28;20051;-83
2021/06/11 09:16:24;;;;;;;4.65;3.35;;;25.40;73.40;;;;;;5052418;28;20044;-84
2021/06/11 09:19:05;;;;;;;10.30;5.05;;;25.50;73.60;;;;;;5052790;28;20029;-83
2021/06/11 09:21:38;;;;;;;4.28;3.35;;;25.70;73.10;;;;;;5054236;28;20075;-83
2021/06/11 09:24:22;;;;;;;3.70;3.40;;;26.00;72.90;;;;;;5053063;28;20029;-83
2021/06/11 09:26:57;;;;;;;3.40;3.10;;;26.40;72.30;;;;;;5057665;28;20164;-84
2021/06/11 09:29:50;;;;;;;3.38;2.60;;;26.80;71.80;;;;;;5055018;28;20108;-83
2021/06/11 09:32:27;;;;;;;5.03;2.70;;;27.50;72.00;;;;;;5050805;28;20076;-83
2021/06/11 09:34:56;;;;;;;2.83;2.63;;;28.10;70.70;;;;;;5050607;28;20690;-83
2021/06/11 09:37:30;;;;;;;3.45;3.15;;;28.70;68.50;;;;;;5052293;28;20021;-84
2021/06/11 09:40:03;;;;;;;4.22;3.03;;;29.00;66.40;;;;;;5052812;28;20075;-84
2021/06/11 09:42:34;;;;;;;5.38;2.85;;;29.30;65.50;;;;;;5049536;28;20079;-78
2021/06/11 09:45:04;;;;;;;4.85;3.17;;;29.30;65.10;;;;;;5050618;28;20056;-78
2021/06/11 09:47:36;;;;;;;3.83;3.45;;;29.40;65.00;;;;;;5050391;28;20063;-79
2021/06/11 09:50:23;;;;;;;6.55;3.58;;;29.50;64.20;;;;;;5050418;28;20382;-79
2021/06/11 09:52:55;;;;;;;5.63;3.60;;;29.50;63.80;;;;;;5050325;28;20422;-78
2021/06/11 09:55:34;;;;;;;7.07;4.47;;;29.30;63.70;;;;;;5048856;28;20036;-78
2021/06/11 09:58:23;;;;;;;17.88;6.90;;;29.20;64.00;;;;;;5048876;28;20033;-78
2021/06/11 10:00:54;;;;;;;6.78;4.90;;;29.10;63.80;;;;;;5049778;28;20102;-77
2021/06/11 10:03:29;;;;;;;9.63;4.07;;;29.10;63.90;;;;;;5053997;28;20025;-78
2021/06/11 10:06:01;;;;;;;8.48;3.97;;;29.00;63.20;;;;;;5053976;28;20037;-78
2021/06/11 10:08:27;;;;;;;;;;;28.80;63.00;;;;;;5054577;28;20037;-78
2021/06/11 10:10:58;;;;;;;26.63;8.98;;;28.60;65.50;;;;;;5052818;28;19915;-78
2021/06/11 10:13:24;;;;;;;54.92;14.00;;;28.30;64.60;;;;;;5037693;28;20771;-78
2021/06/11 10:15:52;;;;;;;29.55;9.63;;;28.20;65.00;;;;;;5033890;28;20026;-82
2021/06/11 10:18:18;;;;;;;59.75;17.85;;;28.10;64.80;;;;;;5032582;28;20684;-79
2021/06/11 10:20:45;;;;;;;93.50;26.00;;;28.20;65.20;;;;;;5032292;28;20025;-77
2021/06/11 10:23:13;;;;;;;35.90;10.45;;;28.30;64.80;;;;;;5033494;28;20013;-79
2021/06/11 10:25:48;;;;;;;17.70;6.05;;;28.40;64.30;;;;;;5033562;28;20739;-77
2021/06/11 10:28:20;;;;;;;71.28;16.73;;;28.60;63.90;;;;;;5033078;28;20033;-77
2021/06/11 10:30:47;;;;;;;39.08;10.90;;;28.60;63.20;;;;;;5033577;28;20053;-78
2021/06/11 10:33:14;;;;;;;11.13;4.63;;;28.60;63.00;;;;;;5032829;28;20029;-79
2021/06/11 10:35:41;;;;;;;6.25;3.70;;;28.40;62.90;;;;;;5034145;28;20025;-77
2021/06/11 10:38:35;;;;;;;7.80;3.28;;;28.50;62.70;;;;;;5035525;28;20037;-76
2021/06/11 10:41:04;;;;;;;3.90;2.40;;;28.30;62.20;;;;;;5033198;28;20026;-77
2021/06/11 10:43:39;;;;;;;8.70;3.13;;;28.20;60.70;;;;;;5033859;28;20033;-77
2021/06/11 10:46:20;;;;;;;8.38;2.80;;;27.90;60.20;;;;;;5036011;28;20048;-77
2021/06/11 10:49:13;;;;;;;6.72;2.47;;;27.60;60.70;;;;;;5035492;28;20033;-77
2021/06/11 10:51:49;;;;;;;6.32;4.55;;;27.30;61.60;;;;;;5031574;28;20041;-77
2021/06/11 10:54:23;;;;;;;9.23;4.10;;;27.10;62.10;;;;;;5034518;28;20032;-77
2021/06/11 10:57:02;;;;;;;6.93;3.05;;;27.00;62.30;;;;;;5034235;28;20033;-77
2021/06/11 10:59:36;;;;;;;5.70;2.55;;;27.10;62.70;;;;;;5033623;28;20476;-76
2021/06/11 11:02:03;;;;;;;7.82;2.72;;;27.10;62.70;;;;;;5033391;28;20040;-78
2021/06/11 11:04:31;;;;;;;3.30;2.80;;;27.10;63.00;;;;;;5032746;28;20102;-77
2021/06/11 11:07:17;;;;;;;2.78;2.40;;;27.20;62.60;;;;;;5032618;28;20463;-78
2021/06/11 11:10:12;;;;;;;2.70;2.50;;;27.20;62.30;;;;;;5033970;28;20037;-85
2021/06/11 11:13:01;;;;;;;10.20;2.92;;;27.20;62.60;;;;;;5034279;28;20022;-84
2021/06/11 11:15:36;;;;;;;2.25;1.98;;;27.20;62.60;;;;;;5033750;28;20032;-84
2021/06/11 11:18:07;;;;;;;3.83;2.95;;;27.00;61.70;;;;;;5039998;28;20047;-82
2021/06/11 11:20:35;;;;;;;5.25;3.33;;;26.90;62.10;;;;;;5051212;28;20033;-83
2021/06/11 11:23:08;;;;;;;4.70;3.30;;;26.80;62.60;;;;;;5036325;28;20022;-85
2021/06/11 11:25:35;;;;;;;4.47;3.88;;;26.90;63.30;;;;;;5033377;28;20029;-84
2021/06/11 11:28:02;;;;;;;7.20;3.17;;;26.90;63.10;;;;;;5034693;28;20563;-84
2021/06/11 11:30:29;;;;;;;4.00;3.40;;;27.00;63.10;;;;;;5033845;28;20030;-84
2021/06/11 11:32:56;;;;;;;3.53;3.10;;;27.10;62.80;;;;;;5034308;28;20096;-78
2021/06/11 11:35:28;;;;;;;4.95;2.95;;;27.20;62.50;;;;;;5031988;28;20168;-78
2021/06/11 11:37:54;;;;;;;7.25;2.60;;;27.30;62.10;;;;;;5032229;28;20013;-79
2021/06/11 11:40:21;;;;;;;4.72;2.70;;;27.30;62.10;;;;;;5031712;28;20047;-77
2021/06/11 11:42:47;;;;;;;4.20;3.58;;;27.20;61.70;;;;;;5031934;28;20041;-77
2021/06/11 11:45:13;;;;;;;3.75;2.88;;;27.20;61.50;;;;;;5032160;28;20033;-76
2021/06/11 11:47:39;;;;;;;3.10;2.63;;;27.10;61.30;;;;;;5030926;28;20109;-78
2021/06/11 11:50:08;;;;;;;3.42;3.13;;;27.10;61.10;;;;;;5032150;28;20121;-77
2021/06/11 11:52:35;;;;;;;4.68;2.80;;;27.00;61.20;;;;;;5031885;28;20018;-77
2021/06/11 11:55:01;;;;;;;4.82;3.38;;;27.00;61.50;;;;;;5030367;28;20026;-76
2021/06/11 11:57:27;;;;;;;4.43;3.00;;;27.00;61.60;;;;;;5030351;28;20087;-79
2021/06/11 11:59:53;;;;;;;3.55;2.95;;;27.10;61.70;;;;;;5036398;28;20048;-85
2021/06/11 12:02:19;;;;;;;3.20;2.90;;;27.20;61.60;;;;;;5040990;28;20029;-84
2021/06/11 12:04:45;;;;;;;10.65;5.32;;;27.30;61.60;;;;;;5036104;28;20018;-85
2021/06/11 12:07:11;;;;;;;5.43;4.20;;;27.40;61.40;;;;;;5033112;28;20041;-85
2021/06/11 12:09:37;;;;;;;5.82;3.33;;;27.50;60.90;;;;;;5034041;28;20029;-85
2021/06/11 12:12:03;;;;;;;3.03;2.83;;;27.50;60.70;;;;;;5034053;28;20163;-86
2021/06/11 12:14:28;;;;;;;5.07;3.03;;;27.50;60.70;;;;;;5034045;28;20025;-84
2021/06/11 12:16:54;;;;;;;6.72;3.08;;;27.30;60.40;;;;;;5032672;28;20396;-85
2021/06/11 12:19:20;;;;;;;4.20;3.22;;;27.20;60.60;;;;;;5034779;28;20098;-84
2021/06/11 12:21:46;;;;;;;9.60;4.05;;;27.10;60.90;;;;;;5032505;28;20541;-84
2021/06/11 12:24:12;;;;;;;4.18;3.60;;;26.90;61.70;;;;;;5032890;28;20056;-84
2021/06/11 12:26:37;;;;;;;5.72;3.88;;;26.70;61.10;;;;;;5032633;28;20056;-84
2021/06/11 12:29:04;;;;;;;8.88;3.70;;;26.50;61.40;;;;;;5034203;28;20029;-83
2021/06/11 12:31:33;;;;;;;4.70;4.25;;;26.30;61.70;;;;;;5049224;28;20079;-77
2021/06/11 12:33:58;;;;;;;5.53;4.00;;;26.10;61.90;;;;;;5038712;28;20372;-77
2021/06/11 12:36:24;;;;;;;4.75;3.53;;;26.00;62.40;;;;;;5029708;28;20029;-77
2021/06/11 12:38:50;;;;;;;5.00;3.08;;;25.90;62.40;;;;;;5030589;28;20025;-77
2021/06/11 12:41:16;;;;;;;5.13;3.15;;;25.90;62.30;;;;;;5030697;28;20033;-78
2021/06/11 12:46:27;;;;;;;7.43;4.22;;;25.80;62.30;;;;;;5030591;28;20037;-81
2021/06/11 12:48:53;;;;;;;6.45;4.63;;;25.70;62.40;;;;;;5030094;28;20021;-79